Time;durP1;ratioP1;P1;durP2;ratioP2;P2;SDS_P1;SDS_P2;PMS_P1;PMS_P2;Temp;Humidity;BMP_temperature;BMP_pressure;BME280_temperature;BME280_humidity;BME280_pressure;Samples;Min_cycle;Max_cycle;Signal;HPM_P1;HPM_P2
2021/05/07 00:00:34;;;;;;;4.00;2.72;;;;;;;;;;5033868;28;20029;-59
2021/05/07 00:03:00;;;;;;;3.58;2.92;;;;;;;;;;5031764;28;20070;-58
2021/05/07 00:05:26;;;;;;;2.97;2.67;;;;;;;;;;5030423;28;20483;-59
2021/05/07 00:07:51;;;;;;;3.20;2.80;;;;;;;;;;5031705;28;20042;-58
2021/05/07 00:10:17;;;;;;;3.15;2.70;;;;;;;;;;5032102;28;21136;-59
2021/05/07 00:12:42;;;;;;;3.70;2.45;;;;;;;;;;5063756;28;20034;-58
2021/05/07 00:15:09;;;;;;;3.17;2.70;;;;;;;;;;5033154;28;20044;-59
2021/05/07 00:17:34;;;;;;;2.95;2.63;;;;;;;;;;5031753;28;20077;-58
2021/05/07 00:19:59;;;;;;;3.20;2.70;;;;;;;;;;5033040;28;20091;-58
2021/05/07 00:22:25;;;;;;;3.10;2.80;;;;;;;;;;5033191;28;20026;-58
2021/05/07 00:24:50;;;;;;;2.90;2.60;;;;;;;;;;5032097;28;20558;-58
2021/05/07 00:27:17;;;;;;;2.20;2.00;;;;;;;;;;5032058;28;20041;-58
2021/05/07 00:29:43;;;;;;;2.58;2.38;;;;;;;;;;5033585;28;20041;-60
2021/05/07 00:32:09;;;;;;;2.10;1.90;;;;;;;;;;5048291;28;20069;-58
2021/05/07 00:34:34;;;;;;;1.92;1.75;;;;;;;;;;5032647;28;20611;-59
2021/05/07 00:37:00;;;;;;;2.10;1.90;;;;;;;;;;5032990;28;20041;-59
2021/05/07 00:39:26;;;;;;;2.55;2.20;;;;;;;;;;5033243;28;20034;-59
2021/05/07 00:41:51;;;;;;;2.47;1.85;;;;;;;;;;5064710;27;20049;-59
2021/05/07 00:44:17;;;;;;;1.73;1.50;;;;;;;;;;5050490;28;20060;-59
2021/05/07 00:46:43;;;;;;;1.42;1.20;;;;;;;;;;5030930;28;20092;-59
2021/05/07 00:49:09;;;;;;;1.85;1.40;;;;;;;;;;5037610;28;20676;-59
2021/05/07 00:51:34;;;;;;;1.80;1.58;;;;;;;;;;5016769;28;20041;-59
2021/05/07 00:54:00;;;;;;;1.77;1.42;;;;;;;;;;5064670;27;20112;-59
2021/05/07 00:56:26;;;;;;;1.58;1.48;;;;;;;;;;5031970;28;20038;-59
2021/05/07 00:58:52;;;;;;;1.63;1.50;;;;;;;;;;5063962;27;20029;-59
2021/05/07 01:01:17;;;;;;;1.80;1.58;;;;;;;;;;5029340;28;20048;-59
2021/05/07 01:03:43;;;;;;;2.45;1.70;;;;;;;;;;5029183;28;20026;-59
2021/05/07 01:06:09;;;;;;;2.45;1.77;;;;;;;;;;5031387;28;20072;-59
2021/05/07 01:08:35;;;;;;;1.90;1.70;;;;;;;;;;5039078;28;20033;-59
2021/05/07 01:11:00;;;;;;;2.20;1.65;;;;;;;;;;5029945;28;20125;-59
2021/05/07 01:13:28;;;;;;;2.00;1.70;;;;;;;;;;5030351;28;20040;-59
2021/05/07 01:16:09;;;;;;;1.88;1.50;;;;;;;;;;5035078;28;20037;-59
2021/05/07 01:18:35;;;;;;;3.05;1.73;;;;;;;;;;5031447;28;20596;-59
2021/05/07 01:21:01;;;;;;;1.85;1.60;;;;;;;;;;5046714;28;20046;-58
2021/05/07 01:23:27;;;;;;;2.00;1.60;;;;;;;;;;5046615;28;20078;-59
2021/05/07 01:25:53;;;;;;;2.03;1.65;;;;;;;;;;5061966;28;20043;-59
2021/05/07 01:28:19;;;;;;;1.98;1.40;;;;;;;;;;5063723;28;20034;-59
2021/05/07 01:30:47;;;;;;;2.38;1.70;;;;;;;;;;5030914;28;20952;-59
2021/05/07 01:33:42;;;;;;;1.90;1.70;;;;;;;;;;5032824;28;20069;-59
2021/05/07 01:36:07;;;;;;;1.50;1.40;;;;;;;;;;5031846;28;20045;-59
2021/05/07 01:38:35;;;;;;;1.45;1.27;;;;;;;;;;5048854;28;20088;-59
2021/05/07 01:41:03;;;;;;;1.80;1.63;;;;;;;;;;5030044;28;20033;-59
2021/05/07 01:43:33;;;;;;;1.60;1.50;;;;;;;;;;5031402;28;20054;-59
2021/05/07 01:46:01;;;;;;;2.22;1.70;;;;;;;;;;5031631;28;20030;-59
2021/05/07 01:48:27;;;;;;;1.75;1.50;;;;;;;;;;5033686;28;20434;-59
2021/05/07 01:50:52;;;;;;;2.17;1.75;;;;;;;;;;5036974;28;20048;-59
2021/05/07 01:53:18;;;;;;;1.77;1.50;;;;;;;;;;5012681;28;20038;-59
2021/05/07 01:55:46;;;;;;;1.80;1.50;;;;;;;;;;5031638;28;20147;-59
2021/05/07 01:58:16;;;;;;;1.90;1.70;;;;;;;;;;5031770;28;20125;-59
2021/05/07 02:00:45;;;;;;;2.30;1.95;;;;;;;;;;5034416;28;20037;-59
2021/05/07 02:03:12;;;;;;;1.70;1.60;;;;;;;;;;5037575;28;20472;-59
2021/05/07 02:05:44;;;;;;;2.40;1.80;;;;;;;;;;5045686;28;20148;-59
2021/05/07 02:08:13;;;;;;;1.98;1.73;;;;;;;;;;5047122;28;20030;-59
2021/05/07 02:10:39;;;;;;;2.30;1.70;;;;;;;;;;5032819;28;20157;-59
2021/05/07 02:13:06;;;;;;;1.95;1.70;;;;;;;;;;5045726;28;20041;-59
2021/05/07 02:15:32;;;;;;;1.83;1.63;;;;;;;;;;5013533;28;20112;-59
2021/05/07 02:17:58;;;;;;;2.22;1.83;;;;;;;;;;5019777;28;20037;-60
2021/05/07 02:20:26;;;;;;;2.03;1.70;;;;;;;;;;5030048;28;20505;-59
2021/05/07 02:22:52;;;;;;;2.22;1.70;;;;;;;;;;5030691;28;20045;-59
2021/05/07 02:25:19;;;;;;;2.22;1.67;;;;;;;;;;5030950;28;20077;-59
2021/05/07 02:27:46;;;;;;;2.38;1.60;;;;;;;;;;5026415;28;20099;-59
2021/05/07 02:30:13;;;;;;;2.28;1.63;;;;;;;;;;5046511;28;20041;-59
2021/05/07 02:32:40;;;;;;;1.70;1.50;;;;;;;;;;5045589;28;20061;-59
2021/05/07 02:35:06;;;;;;;1.90;1.50;;;;;;;;;;5029054;28;20033;-59
2021/05/07 02:37:31;;;;;;;2.10;1.60;;;;;;;;;;5031848;28;20156;-59
2021/05/07 02:39:57;;;;;;;1.88;1.60;;;;;;;;;;5062655;28;20087;-59
2021/05/07 02:42:23;;;;;;;2.88;1.70;;;;;;;;;;5062468;28;20034;-59
2021/05/07 02:44:48;;;;;;;1.63;1.50;;;;;;;;;;5062850;28;20513;-59
2021/05/07 02:47:14;;;;;;;2.05;1.75;;;;;;;;;;5031984;28;20481;-59
2021/05/07 02:49:40;;;;;;;2.22;1.70;;;;;;;;;;5031266;28;20039;-59
2021/05/07 02:52:06;;;;;;;2.35;1.60;;;;;;;;;;5030600;28;20678;-59
2021/05/07 02:54:32;;;;;;;2.72;1.60;;;;;;;;;;5035217;28;20497;-59
2021/05/07 02:56:58;;;;;;;2.03;1.60;;;;;;;;;;5033108;28;20046;-59
2021/05/07 02:59:24;;;;;;;2.42;1.77;;;;;;;;;;5034942;28;20029;-59
2021/05/07 03:01:50;;;;;;;2.47;1.98;;;;;;;;;;5066231;28;20037;-59
2021/05/07 03:04:15;;;;;;;2.45;1.90;;;;;;;;;;5033854;28;20619;-59
2021/05/07 03:06:41;;;;;;;2.42;1.95;;;;;;;;;;5034239;28;20034;-59
2021/05/07 03:09:06;;;;;;;2.40;1.90;;;;;;;;;;5033445;28;20038;-60
2021/05/07 03:11:32;;;;;;;2.10;1.90;;;;;;;;;;5066135;28;20050;-59
2021/05/07 03:13:58;;;;;;;2.00;1.65;;;;;;;;;;5033126;28;20045;-59
2021/05/07 03:16:23;;;;;;;2.60;1.88;;;;;;;;;;5032857;28;20481;-59
2021/05/07 03:18:49;;;;;;;2.50;2.00;;;;;;;;;;5033182;28;20432;-59
2021/05/07 03:21:15;;;;;;;2.38;1.95;;;;;;;;;;5034285;28;20076;-59
2021/05/07 03:23:40;;;;;;;3.38;2.03;;;;;;;;;;5034060;28;20041;-60
2021/05/07 03:26:06;;;;;;;2.38;1.95;;;;;;;;;;5034627;28;20141;-59
2021/05/07 03:28:31;;;;;;;2.60;2.17;;;;;;;;;;5033384;28;20022;-59
2021/05/07 03:30:57;;;;;;;2.90;2.25;;;;;;;;;;5065790;28;20045;-59
2021/05/07 03:33:22;;;;;;;2.85;2.22;;;;;;;;;;5034051;28;20560;-59
2021/05/07 03:35:47;;;;;;;2.83;2.13;;;;;;;;;;5032860;28;20124;-59
2021/05/07 03:38:13;;;;;;;2.72;2.30;;;;;;;;;;5033994;28;20040;-59
2021/05/07 03:40:38;;;;;;;2.63;2.13;;;;;;;;;;5033996;28;20038;-59
2021/05/07 03:43:04;;;;;;;2.70;2.30;;;;;;;;;;5032564;28;20033;-59
2021/05/07 03:45:29;;;;;;;2.75;2.35;;;;;;;;;;5032322;28;20331;-59
2021/05/07 03:47:55;;;;;;;3.53;2.50;;;;;;;;;;5041638;28;20504;-60
2021/05/07 03:50:20;;;;;;;3.95;2.70;;;;;;;;;;5022793;28;20091;-59
2021/05/07 03:52:46;;;;;;;3.47;2.80;;;;;;;;;;5031665;28;20478;-59
2021/05/07 03:55:12;;;;;;;4.10;3.17;;;;;;;;;;5052301;28;20601;-59
2021/05/07 03:57:38;;;;;;;3.60;3.03;;;;;;;;;;5031683;28;20030;-59
2021/05/07 04:00:04;;;;;;;3.55;2.90;;;;;;;;;;5063749;28;20125;-59
2021/05/07 04:02:38;;;;;;;3.53;2.95;;;;;;;;;;5032005;28;20095;-59
2021/05/07 04:05:04;;;;;;;4.78;3.40;;;;;;;;;;5033275;28;20041;-59
2021/05/07 04:07:30;;;;;;;4.35;3.70;;;;;;;;;;5034128;28;20052;-59
2021/05/07 04:10:05;;;;;;;3.50;3.10;;;;;;;;;;5032138;28;20030;-59
2021/05/07 04:13:31;;;;;;;4.40;3.50;;;;;;;;;;5033326;28;20045;-59
2021/05/07 04:15:16;;;;;;;5.07;3.75;;;;;;;;;;5031726;28;20121;-59
2021/05/07 04:17:42;;;;;;;5.03;3.90;;;;;;;;;;5032390;28;20034;-59
2021/05/07 04:20:08;;;;;;;4.35;3.70;;;;;;;;;;5030497;28;20079;-59
2021/05/07 04:22:34;;;;;;;4.75;3.72;;;;;;;;;;5031821;28;20037;-60
2021/05/07 04:24:59;;;;;;;4.95;3.80;;;;;;;;;;5031707;28;20040;-59
2021/05/07 04:27:25;;;;;;;6.57;4.03;;;;;;;;;;5030988;28;20087;-59
2021/05/07 04:29:51;;;;;;;5.32;3.92;;;;;;;;;;5031993;28;20038;-59
2021/05/07 04:32:16;;;;;;;6.40;4.68;;;;;;;;;;5032119;28;20108;-59
2021/05/07 04:34:42;;;;;;;5.70;4.03;;;;;;;;;;5031489;28;20060;-59
2021/05/07 04:37:07;;;;;;;6.70;5.03;;;;;;;;;;5033395;28;20034;-59
2021/05/07 04:39:33;;;;;;;6.05;4.43;;;;;;;;;;5014863;28;20042;-59
2021/05/07 04:41:59;;;;;;;6.20;4.45;;;;;;;;;;5032586;28;20038;-59
2021/05/07 04:44:24;;;;;;;6.07;4.80;;;;;;;;;;5031340;28;20035;-59
2021/05/07 04:46:49;;;;;;;6.78;5.20;;;;;;;;;;5031338;28;20607;-59
2021/05/07 04:49:15;;;;;;;6.25;4.90;;;;;;;;;;5030097;28;20037;-59
2021/05/07 04:51:40;;;;;;;6.47;5.00;;;;;;;;;;5033381;28;20096;-59
2021/05/07 04:54:06;;;;;;;6.20;5.20;;;;;;;;;;5032899;28;20037;-59
2021/05/07 04:56:31;;;;;;;6.55;4.97;;;;;;;;;;5032973;28;20036;-59
2021/05/07 04:58:57;;;;;;;7.25;5.10;;;;;;;;;;5030408;28;20048;-59
2021/05/07 05:01:22;;;;;;;6.13;4.65;;;;;;;;;;5032178;28;20030;-59
2021/05/07 05:03:48;;;;;;;6.95;5.25;;;;;;;;;;5032587;28;20686;-59
2021/05/07 05:06:15;;;;;;;6.13;5.10;;;;;;;;;;5030179;28;20038;-59
2021/05/07 05:08:40;;;;;;;6.82;4.78;;;;;;;;;;5031360;28;20033;-59
2021/05/07 05:11:06;;;;;;;6.57;5.22;;;;;;;;;;5032740;28;20041;-59
2021/05/07 05:13:31;;;;;;;7.18;5.53;;;;;;;;;;5031643;28;20445;-59
2021/05/07 05:15:57;;;;;;;7.13;5.13;;;;;;;;;;5030271;28;20029;-59
2021/05/07 05:18:32;;;;;;;6.13;4.95;;;;;;;;;;5032021;28;20087;-59
2021/05/07 05:21:02;;;;;;;6.50;4.90;;;;;;;;;;5031271;28;20045;-59
2021/05/07 05:23:27;;;;;;;5.90;4.68;;;;;;;;;;5016864;28;20109;-59
2021/05/07 05:25:53;;;;;;;6.00;4.80;;;;;;;;;;5019340;28;20493;-59
2021/05/07 05:28:18;;;;;;;5.45;4.43;;;;;;;;;;5031904;28;20045;-59
2021/05/07 05:30:44;;;;;;;6.35;4.68;;;;;;;;;;5030279;28;20038;-59
2021/05/07 05:33:09;;;;;;;5.45;4.55;;;;;;;;;;5063699;28;20045;-59
2021/05/07 05:35:35;;;;;;;5.50;4.18;;;;;;;;;;5032735;28;20026;-59
2021/05/07 05:38:00;;;;;;;6.53;4.80;;;;;;;;;;5031154;28;20092;-59
2021/05/07 05:40:26;;;;;;;5.53;3.95;;;;;;;;;;5030356;28;20042;-59
2021/05/07 05:42:51;;;;;;;5.50;3.72;;;;;;;;;;5031961;28;20105;-59
2021/05/07 05:45:17;;;;;;;6.03;4.20;;;;;;;;;;5032063;28;20042;-59
2021/05/07 05:47:43;;;;;;;4.47;3.58;;;;;;;;;;5030602;28;20042;-59
2021/05/07 05:50:09;;;;;;;4.60;3.63;;;;;;;;;;5030175;28;20046;-59
2021/05/07 05:52:35;;;;;;;4.03;3.28;;;;;;;;;;5031323;28;20028;-59
2021/05/07 05:55:00;;;;;;;4.82;3.50;;;;;;;;;;5030995;28;20362;-59
2021/05/07 05:57:26;;;;;;;4.45;3.20;;;;;;;;;;5029461;28;20088;-59
2021/05/07 05:59:52;;;;;;;3.75;2.85;;;;;;;;;;5062600;28;20038;-59
2021/05/07 06:02:17;;;;;;;3.50;2.88;;;;;;;;;;5029463;28;20034;-59
2021/05/07 06:04:43;;;;;;;4.35;3.08;;;;;;;;;;5029891;28;20553;-59
2021/05/07 06:07:08;;;;;;;4.03;3.10;;;;;;;;;;5028974;28;20040;-59
2021/05/07 06:09:34;;;;;;;4.82;3.55;;;;;;;;;;5032022;28;20033;-59
2021/05/07 06:12:01;;;;;;;4.32;3.10;;;;;;;;;;5061818;27;20044;-59
2021/05/07 06:14:27;;;;;;;3.65;2.90;;;;;;;;;;5031418;28;20038;-59
2021/05/07 06:16:52;;;;;;;3.58;2.78;;;;;;;;;;5030272;28;20393;-59
2021/05/07 06:19:18;;;;;;;4.07;2.90;;;;;;;;;;5030867;28;20045;-59
2021/05/07 06:21:43;;;;;;;3.78;2.90;;;;;;;;;;5031542;28;20033;-59
2021/05/07 06:24:09;;;;;;;5.00;2.80;;;;;;;;;;5029960;28;20042;-59
2021/05/07 06:26:34;;;;;;;3.88;2.90;;;;;;;;;;5031996;28;20061;-59
2021/05/07 06:29:00;;;;;;;4.63;2.78;;;;;;;;;;5030831;28;20033;-59
2021/05/07 06:31:27;;;;;;;3.10;2.50;;;;;;;;;;5029668;28;20232;-59
2021/05/07 06:33:53;;;;;;;3.67;2.42;;;;;;;;;;5030783;28;20153;-59
2021/05/07 06:36:20;;;;;;;3.78;2.80;;;;;;;;;;5033840;28;20871;-59
2021/05/07 06:38:45;;;;;;;2.83;2.28;;;;;;;;;;5030827;28;20037;-59
2021/05/07 06:41:11;;;;;;;3.17;2.50;;;;;;;;;;5030971;28;20030;-59
2021/05/07 06:43:37;;;;;;;3.85;2.40;;;;;;;;;;5029184;28;20030;-59
2021/05/07 06:46:02;;;;;;;4.55;2.60;;;;;;;;;;5029819;27;20566;-60
2021/05/07 06:48:28;;;;;;;2.65;2.20;;;;;;;;;;5062288;28;20057;-59
2021/05/07 06:50:53;;;;;;;3.33;2.30;;;;;;;;;;5061540;28;20540;-59
2021/05/07 06:53:20;;;;;;;2.30;2.03;;;;;;;;;;5055466;28;20080;-59
2021/05/07 06:55:45;;;;;;;3.95;2.30;;;;;;;;;;5031430;28;20051;-59
2021/05/07 06:58:11;;;;;;;2.60;2.03;;;;;;;;;;5011064;28;20038;-59
2021/05/07 07:00:37;;;;;;;2.55;1.73;;;;;;;;;;5031423;28;20161;-59
2021/05/07 07:03:03;;;;;;;2.83;2.10;;;;;;;;;;5030348;28;20038;-59
2021/05/07 07:05:28;;;;;;;2.85;2.15;;;;;;;;;;5030845;28;20100;-60
2021/05/07 07:07:54;;;;;;;2.10;1.90;;;;;;;;;;5029496;28;20101;-60
2021/05/07 07:10:20;;;;;;;3.20;1.70;;;;;;;;;;5029728;28;20042;-59
2021/05/07 07:12:46;;;;;;;3.03;2.10;;;;;;;;;;5061857;28;20029;-60
2021/05/07 07:15:12;;;;;;;3.03;2.08;;;;;;;;;;5062796;28;20018;-59
2021/05/07 07:17:38;;;;;;;3.47;1.83;;;;;;;;;;5030079;28;20042;-60
2021/05/07 07:20:04;;;;;;;3.05;1.90;;;;;;;;;;5028528;28;20433;-60
2021/05/07 07:22:29;;;;;;;2.13;1.80;;;;;;;;;;5038743;28;20065;-59
2021/05/07 07:24:55;;;;;;;2.90;1.92;;;;;;;;;;5030612;28;20029;-60
2021/05/07 07:27:20;;;;;;;2.63;2.00;;;;;;;;;;5032552;28;20398;-60
2021/05/07 07:29:47;;;;;;;2.53;1.90;;;;;;;;;;5030249;28;20037;-60
2021/05/07 07:32:12;;;;;;;1.98;1.63;;;;;;;;;;5021426;28;20046;-60
2021/05/07 07:34:38;;;;;;;1.75;1.48;;;;;;;;;;5030661;28;20473;-60
2021/05/07 07:37:03;;;;;;;2.65;1.80;;;;;;;;;;5038215;28;20041;-59
2021/05/07 07:39:29;;;;;;;1.88;1.50;;;;;;;;;;5032776;28;20126;-59
2021/05/07 07:41:54;;;;;;;2.65;1.60;;;;;;;;;;5034628;28;20033;-60
2021/05/07 07:44:20;;;;;;;2.10;1.65;;;;;;;;;;5063821;28;20413;-59
2021/05/07 07:46:45;;;;;;;2.88;1.70;;;;;;;;;;5032608;28;20116;-59
2021/05/07 07:49:11;;;;;;;2.08;1.58;;;;;;;;;;5025120;28;20048;-60
2021/05/07 07:51:38;;;;;;;3.13;1.88;;;;;;;;;;5031722;28;20040;-60
2021/05/07 07:54:04;;;;;;;2.90;1.67;;;;;;;;;;5033768;28;20063;-60
2021/05/07 07:56:29;;;;;;;2.53;1.52;;;;;;;;;;5040744;28;20040;-60
2021/05/07 07:58:55;;;;;;;4.20;1.40;;;;;;;;;;5032892;28;20044;-60
2021/05/07 08:01:20;;;;;;;1.95;1.27;;;;;;;;;;5032055;28;20817;-60
2021/05/07 08:03:46;;;;;;;1.17;1.08;;;;;;;;;;5034293;28;20052;-60
2021/05/07 08:06:11;;;;;;;1.85;1.15;;;;;;;;;;5033473;28;20508;-60
2021/05/07 08:08:37;;;;;;;1.92;1.15;;;;;;;;;;5034320;28;20097;-60
2021/05/07 08:11:02;;;;;;;1.73;1.30;;;;;;;;;;5031620;28;20113;-60
2021/05/07 08:13:28;;;;;;;1.42;1.20;;;;;;;;;;5032851;28;20058;-60
2021/05/07 08:15:53;;;;;;;1.45;1.20;;;;;;;;;;5032188;28;20204;-61
2021/05/07 08:18:19;;;;;;;2.10;1.38;;;;;;;;;;5032286;28;20041;-60
2021/05/07 08:20:45;;;;;;;1.65;1.30;;;;;;;;;;5032937;28;20515;-61
2021/05/07 08:23:10;;;;;;;1.90;1.25;;;;;;;;;;5033970;28;20034;-61
2021/05/07 08:25:36;;;;;;;2.33;1.20;;;;;;;;;;5032578;28;20925;-60
2021/05/07 08:28:01;;;;;;;1.75;0.98;;;;;;;;;;5031799;28;20564;-60
2021/05/07 08:30:27;;;;;;;1.25;0.70;;;;;;;;;;5032070;28;20050;-61
2021/05/07 08:32:52;;;;;;;0.95;0.80;;;;;;;;;;5032265;28;20068;-60
2021/05/07 08:35:18;;;;;;;1.42;1.00;;;;;;;;;;5033420;28;20033;-60
2021/05/07 08:37:43;;;;;;;1.33;0.95;;;;;;;;;;5031932;28;20044;-60
2021/05/07 08:40:11;;;;;;;1.17;0.77;;;;;;;;;;5030410;28;20030;-60
2021/05/07 08:42:37;;;;;;;2.20;1.30;;;;;;;;;;5030737;28;20034;-61
2021/05/07 08:45:03;;;;;;;2.35;1.10;;;;;;;;;;5031276;28;20490;-61
2021/05/07 08:47:32;;;;;;;1.52;0.90;;;;;;;;;;5032477;28;20039;-60
2021/05/07 08:49:58;;;;;;;1.40;1.00;;;;;;;;;;5014593;28;20489;-60
2021/05/07 08:52:24;;;;;;;1.10;1.00;;;;;;;;;;5030785;28;20037;-60
2021/05/07 08:54:50;;;;;;;1.33;0.90;;;;;;;;;;5030712;28;20049;-61
2021/05/07 08:57:16;;;;;;;1.67;0.90;;;;;;;;;;5023885;28;20044;-61
2021/05/07 08:59:41;;;;;;;1.58;1.08;;;;;;;;;;5046886;28;20022;-60
2021/05/07 09:02:07;;;;;;;2.30;1.10;;;;;;;;;;5031014;28;20096;-60
2021/05/07 09:04:32;;;;;;;1.65;1.10;;;;;;;;;;5028870;28;20156;-61
2021/05/07 09:06:58;;;;;;;1.70;1.08;;;;;;;;;;5029437;28;20987;-61
2021/05/07 09:09:30;;;;;;;1.98;1.13;;;;;;;;;;5030100;28;20083;-61
2021/05/07 09:11:57;;;;;;;1.52;1.27;;;;;;;;;;5032849;28;20073;-61
2021/05/07 09:14:23;;;;;;;1.48;1.30;;;;;;;;;;5047823;28;20149;-61
2021/05/07 09:16:55;;;;;;;2.08;1.25;;;;;;;;;;5049178;28;20457;-61
2021/05/07 09:19:25;;;;;;;1.83;1.45;;;;;;;;;;5037047;28;20033;-61
2021/05/07 09:21:51;;;;;;;2.28;1.27;;;;;;;;;;5030277;28;20512;-61
2021/05/07 09:24:17;;;;;;;2.35;1.30;;;;;;;;;;5030999;28;20041;-61
2021/05/07 09:26:47;;;;;;;1.50;1.30;;;;;;;;;;5028559;28;20080;-60
2021/05/07 09:29:23;;;;;;;1.58;1.20;;;;;;;;;;5029710;28;20066;-61
2021/05/07 09:31:50;;;;;;;1.98;1.20;;;;;;;;;;5034433;28;20045;-61
2021/05/07 09:34:16;;;;;;;1.63;1.10;;;;;;;;;;5017867;28;20144;-61
2021/05/07 09:36:42;;;;;;;1.73;1.17;;;;;;;;;;5044834;28;21279;-61
2021/05/07 09:39:18;;;;;;;1.92;1.08;;;;;;;;;;5033110;28;20041;-61
2021/05/07 09:41:45;;;;;;;1.20;1.10;;;;;;;;;;5029331;28;20065;-61
2021/05/07 09:44:23;;;;;;;1.70;1.17;;;;;;;;;;5030455;28;20038;-62
2021/05/07 09:46:50;;;;;;;2.00;1.00;;;;;;;;;;5032301;28;20037;-61
2021/05/07 09:49:31;;;;;;;1.17;1.00;;;;;;;;;;5029509;28;20072;-61
2021/05/07 09:51:57;;;;;;;2.65;1.48;;;;;;;;;;5032242;28;20057;-61
2021/05/07 09:54:23;;;;;;;1.58;1.00;;;;;;;;;;5029944;28;20282;-61
2021/05/07 09:56:48;;;;;;;1.20;1.10;;;;;;;;;;5028863;28;20508;-61
2021/05/07 09:59:15;;;;;;;1.67;1.23;;;;;;;;;;5030344;28;20037;-61
2021/05/07 10:01:46;;;;;;;1.38;1.10;;;;;;;;;;5028621;28;20042;-61
2021/05/07 10:04:12;;;;;;;1.55;1.10;;;;;;;;;;5032205;28;20038;-61
2021/05/07 10:06:38;;;;;;;1.30;1.20;;;;;;;;;;5033635;28;20021;-61
2021/05/07 10:09:05;;;;;;;2.38;1.30;;;;;;;;;;5031179;28;20616;-61
2021/05/07 10:11:42;;;;;;;1.50;1.25;;;;;;;;;;5034259;28;20041;-61
2021/05/07 10:14:10;;;;;;;1.35;1.25;;;;;;;;;;5029165;28;20038;-61
2021/05/07 10:16:36;;;;;;;1.77;1.13;;;;;;;;;;5029980;28;20038;-61
2021/05/07 10:19:03;;;;;;;1.17;1.05;;;;;;;;;;5030210;28;20033;-61
2021/05/07 10:21:37;;;;;;;1.10;1.00;;;;;;;;;;5022640;28;20560;-61
2021/05/07 10:24:03;;;;;;;2.03;1.20;;;;;;;;;;5029965;28;20365;-60
2021/05/07 10:26:39;;;;;;;2.72;1.90;;;;;;;;;;5028561;28;20050;-60
2021/05/07 10:29:18;;;;;;;1.48;1.17;;;;;;;;;;5062837;28;20045;-60
2021/05/07 10:31:54;;;;;;;1.45;1.02;;;;;;;;;;5038702;28;20042;-60
2021/05/07 10:34:20;;;;;;;1.13;1.02;;;;;;;;;;5030595;28;20125;-60
2021/05/07 10:36:47;;;;;;;1.38;1.02;;;;;;;;;;5039371;28;20030;-60
2021/05/07 10:39:23;;;;;;;1.73;1.00;;;;;;;;;;5055942;28;20506;-60
2021/05/07 10:41:49;;;;;;;1.42;1.10;;;;;;;;;;5032784;28;20037;-60
2021/05/07 10:44:16;;;;;;;1.58;0.95;;;;;;;;;;5062958;28;20082;-60
2021/05/07 10:46:42;;;;;;;1.20;0.98;;;;;;;;;;5029860;28;20034;-61
2021/05/07 10:49:07;;;;;;;1.83;0.90;;;;;;;;;;5028695;28;20053;-60
2021/05/07 10:51:33;;;;;;;1.60;1.20;;;;;;;;;;5031133;28;20080;-60
2021/05/07 10:54:11;;;;;;;2.30;1.00;;;;;;;;;;5030592;28;20426;-60
2021/05/07 10:56:41;;;;;;;0.98;0.80;;;;;;;;;;5031157;28;20038;-60
2021/05/07 10:59:17;;;;;;;2.22;0.88;;;;;;;;;;5013163;28;20441;-60
2021/05/07 11:01:55;;;;;;;1.70;1.00;;;;;;;;;;5030686;28;20034;-60
2021/05/07 11:04:20;;;;;;;1.75;1.20;;;;;;;;;;5029761;28;20038;-61
2021/05/07 11:06:46;;;;;;;1.02;0.90;;;;;;;;;;5032650;28;20059;-60
2021/05/07 11:09:16;;;;;;;1.40;0.90;;;;;;;;;;5027866;28;20045;-60
2021/05/07 11:11:42;;;;;;;1.25;0.90;;;;;;;;;;5030929;28;20042;-61
2021/05/07 11:14:20;;;;;;;1.02;0.90;;;;;;;;;;5032082;28;20034;-61
2021/05/07 11:16:46;;;;;;;1.50;0.90;;;;;;;;;;5032631;28;20112;-61
2021/05/07 11:19:21;;;;;;;1.27;0.90;;;;;;;;;;5034993;28;20437;-61
2021/05/07 11:22:06;;;;;;;1.17;0.98;;;;;;;;;;5033822;28;20513;-60
2021/05/07 11:24:47;;;;;;;1.20;1.10;;;;;;;;;;5021586;28;20124;-60
2021/05/07 11:27:21;;;;;;;1.02;0.90;;;;;;;;;;5032313;28;20038;-60
2021/05/07 11:29:46;;;;;;;1.48;0.88;;;;;;;;;;5032448;28;20117;-61
2021/05/07 11:32:17;;;;;;;2.15;1.05;;;;;;;;;;5018531;28;20033;-61
2021/05/07 11:34:48;;;;;;;0.90;0.80;;;;;;;;;;5033215;28;20418;-61
2021/05/07 11:37:14;;;;;;;1.10;0.90;;;;;;;;;;5016530;28;20104;-61
2021/05/07 11:39:39;;;;;;;1.23;0.68;;;;;;;;;;5033957;28;20533;-62
2021/05/07 11:42:05;;;;;;;0.93;0.73;;;;;;;;;;5052086;28;20042;-61
2021/05/07 11:44:30;;;;;;;0.77;0.60;;;;;;;;;;5031680;28;20038;-61
2021/05/07 11:47:08;;;;;;;1.00;0.90;;;;;;;;;;5034516;28;20092;-61
2021/05/07 11:49:37;;;;;;;0.65;0.65;;;;;;;;;;5031906;28;20038;-61
2021/05/07 11:52:03;;;;;;;1.05;0.85;;;;;;;;;;5031040;28;20531;-61
2021/05/07 11:54:42;;;;;;;1.55;0.77;;;;;;;;;;5033675;28;20496;-61
2021/05/07 11:57:08;;;;;;;0.70;0.70;;;;;;;;;;5047636;28;20045;-62
2021/05/07 11:59:33;;;;;;;1.02;0.70;;;;;;;;;;5037283;28;20041;-62
2021/05/07 12:02:05;;;;;;;0.60;0.60;;;;;;;;;;5032951;28;20026;-62
2021/05/07 12:04:41;;;;;;;0.80;0.70;;;;;;;;;;5033913;28;20045;-62
2021/05/07 12:07:07;;;;;;;1.35;0.82;;;;;;;;;;5046083;28;20041;-62
2021/05/07 12:09:32;;;;;;;1.80;0.88;;;;;;;;;;5063885;28;20033;-62
2021/05/07 12:11:59;;;;;;;0.82;0.73;;;;;;;;;;5030702;28;20044;-63
2021/05/07 12:14:34;;;;;;;1.33;0.70;;;;;;;;;;5031394;28;20033;-62
2021/05/07 12:17:00;;;;;;;1.13;0.68;;;;;;;;;;5030206;28;20121;-61
2021/05/07 12:19:25;;;;;;;1.63;0.80;;;;;;;;;;5030559;28;20042;-62
2021/05/07 12:21:51;;;;;;;1.17;0.80;;;;;;;;;;5032805;28;20048;-62
2021/05/07 12:24:27;;;;;;;1.20;0.60;;;;;;;;;;5012635;28;20448;-62
2021/05/07 12:26:53;;;;;;;0.98;0.70;;;;;;;;;;5033920;28;20026;-62
2021/05/07 12:29:18;;;;;;;1.70;1.00;;;;;;;;;;5032531;28;20656;-62
2021/05/07 12:31:44;;;;;;;1.15;0.77;;;;;;;;;;5032000;28;20038;-62
2021/05/07 12:34:17;;;;;;;1.63;0.80;;;;;;;;;;5032140;28;20477;-62
2021/05/07 12:36:43;;;;;;;0.80;0.80;;;;;;;;;;5030867;28;20038;-62
2021/05/07 12:39:10;;;;;;;1.45;0.98;;;;;;;;;;5032035;28;20112;-61
2021/05/07 12:41:35;;;;;;;1.58;0.80;;;;;;;;;;5032485;28;20536;-61
2021/05/07 12:44:01;;;;;;;0.93;0.80;;;;;;;;;;5033271;28;20048;-61
2021/05/07 12:46:26;;;;;;;2.47;1.30;;;;;;;;;;5031189;28;20037;-62
2021/05/07 12:48:55;;;;;;;1.50;0.85;;;;;;;;;;5030600;28;20748;-62
2021/05/07 12:51:21;;;;;;;1.75;1.00;;;;;;;;;;5038062;28;20038;-63
2021/05/07 12:53:47;;;;;;;1.20;0.90;;;;;;;;;;5030953;28;20042;-63
2021/05/07 12:56:13;;;;;;;1.27;0.90;;;;;;;;;;5032352;28;20060;-61
2021/05/07 12:58:39;;;;;;;1.63;0.88;;;;;;;;;;5029563;28;20566;-61
2021/05/07 13:01:04;;;;;;;1.50;0.90;;;;;;;;;;5031840;28;20033;-61
2021/05/07 13:03:30;;;;;;;0.95;0.80;;;;;;;;;;5029827;28;20037;-60
2021/05/07 13:05:55;;;;;;;1.08;0.70;;;;;;;;;;5029654;28;20033;-61
2021/05/07 13:08:21;;;;;;;0.70;0.68;;;;;;;;;;5031917;28;20042;-60
2021/05/07 13:10:47;;;;;;;1.17;0.57;;;;;;;;;;5030849;28;20049;-59
2021/05/07 13:13:12;;;;;;;2.10;0.82;;;;;;;;;;5030059;28;20041;-59
2021/05/07 13:15:38;;;;;;;1.13;0.70;;;;;;;;;;5031638;28;20381;-59
2021/05/07 13:18:07;;;;;;;1.65;1.27;;;;;;;;;;5032398;28;20032;-59
2021/05/07 13:20:32;;;;;;;1.35;0.93;;;;;;;;;;5033146;28;20071;-59
2021/05/07 13:22:58;;;;;;;2.70;1.45;;;;;;;;;;5063708;27;20048;-60
2021/05/07 13:25:23;;;;;;;4.75;2.05;;;;;;;;;;5062477;27;20148;-59
2021/05/07 13:27:50;;;;;;;2.40;1.35;;;;;;;;;;5031013;28;20034;-60
2021/05/07 13:30:16;;;;;;;1.92;1.10;;;;;;;;;;5030384;28;20449;-60
2021/05/07 13:32:42;;;;;;;1.35;0.82;;;;;;;;;;5030759;28;20041;-59
2021/05/07 13:35:10;;;;;;;2.20;1.15;;;;;;;;;;5029294;28;20040;-60
2021/05/07 13:37:35;;;;;;;1.80;1.30;;;;;;;;;;5030317;28;20331;-59
2021/05/07 13:40:01;;;;;;;1.48;0.80;;;;;;;;;;5013250;28;20033;-60
2021/05/07 13:42:30;;;;;;;0.77;0.77;;;;;;;;;;5029514;28;20049;-59
2021/05/07 13:44:55;;;;;;;0.98;0.90;;;;;;;;;;5034111;28;20044;-60
2021/05/07 13:47:21;;;;;;;0.88;0.60;;;;;;;;;;5030789;28;20037;-59
2021/05/07 13:49:46;;;;;;;1.52;0.80;;;;;;;;;;5029757;28;20129;-60
2021/05/07 13:52:12;;;;;;;1.15;0.70;;;;;;;;;;5031082;28;20141;-59
2021/05/07 13:54:37;;;;;;;1.35;0.80;;;;;;;;;;5030386;28;20038;-60
2021/05/07 13:57:03;;;;;;;1.27;0.75;;;;;;;;;;5033340;28;20036;-59
2021/05/07 13:59:29;;;;;;;2.40;1.40;;;;;;;;;;5032224;28;20130;-60
2021/05/07 14:01:54;;;;;;;1.05;0.88;;;;;;;;;;5030074;28;20033;-60
2021/05/07 14:04:20;;;;;;;0.90;0.73;;;;;;;;;;5032184;28;20549;-60
2021/05/07 14:06:46;;;;;;;0.95;0.60;;;;;;;;;;5030270;28;20044;-60
2021/05/07 14:09:12;;;;;;;0.98;0.80;;;;;;;;;;5030536;28;20061;-59
2021/05/07 14:11:37;;;;;;;1.88;0.85;;;;;;;;;;5030723;28;20056;-60
2021/05/07 14:14:10;;;;;;;0.88;0.70;;;;;;;;;;5063793;28;20074;-60
2021/05/07 14:16:40;;;;;;;0.95;0.85;;;;;;;;;;5045321;28;20029;-60
2021/05/07 14:19:05;;;;;;;0.85;0.70;;;;;;;;;;5030165;28;20137;-60
2021/05/07 14:21:32;;;;;;;1.63;0.73;;;;;;;;;;5044837;28;20028;-59
2021/05/07 14:23:57;;;;;;;0.80;0.70;;;;;;;;;;5029676;28;20034;-59
2021/05/07 14:26:23;;;;;;;1.58;0.90;;;;;;;;;;5044625;28;20030;-60
2021/05/07 14:28:48;;;;;;;2.08;1.13;;;;;;;;;;5036618;28;20048;-60
2021/05/07 14:31:14;;;;;;;1.55;1.05;;;;;;;;;;5030328;28;20038;-60
2021/05/07 14:33:39;;;;;;;0.80;0.70;;;;;;;;;;5031167;28;20038;-60
2021/05/07 14:36:06;;;;;;;1.48;0.80;;;;;;;;;;5029149;28;20038;-60
2021/05/07 14:38:31;;;;;;;4.03;2.17;;;;;;;;;;5028695;28;20475;-60
2021/05/07 14:40:56;;;;;;;1.33;0.70;;;;;;;;;;5027075;28;20034;-59